Airfield :
LOGIN :

Register | Disclaimer

   EN    FR    IT 

 










Legend :    VFR   Marginal VFR   IFR   Intensive IFR   Very Intensive IFR
Visi :
Ceiling :
>= 8 km
>= 3000ft
5 to 8 km
1000 to 3000 ft
1500m to 5 km
500 to 1000 ft
800 to 1500m
200 to 500 ft
< 800m
< 200 ft
Symbols :   Thunderstorms  Fog  Heavy snow  Heavy precipitations  Wind > 20 kt
SIGMETs :     Misc.  Thunderstorms  Icing  Turbulence  Mountain Waves  Volcanic Ashes






- Airport Elevation : 202 ft
- IATA code : LGW


EGKK - London Gatwick

CURRENT METAR :
  • 170420Z VRB01KT 5000 BR NSC 03/03 Q1009

EXPIRED METARs :
  • 170350Z 33002KT 5000 BR NSC 03/03 Q1008
  • 170320Z 30001KT 5000 R08R/1100 BR NSC 03/03 Q1009
  • 170250Z 25001KT 9000 BCFG NSC 04/04 Q1009
  • 170220Z 27002KT 9000 BCFG NSC 04/04 Q1009
  • 170150Z 00000KT 9000 BCFG NSC 04/04 Q1009

TAF TAF EGKK
Valid from the 17 at 00:00 until the 18 at 06:00 UTC


162255Z 1700/1806 VRB04KT 9999 SCT045
TEMPO 1703/1709 3000 BR
PROB30
TEMPO 1703/1709 1200 MIFG
BECMG 1717/1720 6000
BECMG 1722/1801 BKN006
PROB40
TEMPO 1801/1806 3000 BR BKN004



MET'MAP, your aeronautical weather chart ! - Copyright ORBIFLY December 2007 - Disclaimer

ORBIFLY MET'MAP TEAM :

Programming & Development : Alexandra Zaïnal
Concept & Development : Baudouin d'Aumeries
Co-Development & Prog : Marc-Olivier Méhu
Technical & hardware support : Manuel Goepfert

Contact : metmap@orbifly.com




SOURCES & CREDITS :

   NOAA